Time;durP1;ratioP1;P1;durP2;ratioP2;P2;SDS_P1;SDS_P2;PMS_P1;PMS_P2;Temp;Humidity;BMP_temperature;BMP_pressure;BME280_temperature;BME280_humidity;BME280_pressure;Samples;Min_cycle;Max_cycle;Signal;HPM_P1;HPM_P2
2024/01/28 00:00:44;;;;;;;35.28;14.18;;;;;;;6.93;66.72;103359.31;5070155;28;20498;-47
2024/01/28 00:03:09;;;;;;;34.30;14.57;;;;;;;6.85;66.97;103357.88;5069449;28;20028;-47
2024/01/28 00:05:36;;;;;;;36.55;15.27;;;;;;;7.09;65.80;103355.13;5069650;28;20071;-45
2024/01/28 00:08:03;;;;;;;32.67;14.45;;;;;;;7.15;65.71;103359.03;5069123;28;20037;-49
2024/01/28 00:10:29;;;;;;;34.60;15.32;;;;;;;7.35;64.48;103357.75;5069629;28;20036;-46
2024/01/28 00:12:54;;;;;;;35.03;15.50;;;;;;;7.29;64.66;103352.16;5069095;28;20521;-49
2024/01/28 00:15:19;;;;;;;32.80;14.43;;;;;;;7.32;64.36;103344.56;5069916;28;20052;-44
2024/01/28 00:17:45;;;;;;;38.63;14.57;;;;;;;7.23;65.08;103351.75;5067888;28;20033;-47
2024/01/28 00:20:10;;;;;;;31.73;14.55;;;;;;;7.32;64.69;103347.16;5069375;28;20036;-48
2024/01/28 00:22:36;;;;;;;32.38;14.10;;;;;;;7.21;64.57;103342.97;5069667;28;20119;-48
2024/01/28 00:25:01;;;;;;;33.22;14.38;;;;;;;7.31;64.64;103335.91;5070154;28;20062;-46
2024/01/28 00:27:26;;;;;;;30.17;14.07;;;;;;;7.18;64.54;103335.91;5069520;28;20116;-46
2024/01/28 00:29:52;;;;;;;36.22;14.68;;;;;;;7.15;65.25;103327.91;5069984;28;20068;-46
2024/01/28 00:32:18;;;;;;;30.75;13.98;;;;;;;7.22;65.06;103326.63;5069038;28;20038;-45
2024/01/28 00:34:44;;;;;;;35.72;14.25;;;;;;;7.33;64.38;103315.22;5070358;28;20033;-46
2024/01/28 00:37:10;;;;;;;35.65;14.57;;;;;;;7.26;64.34;103313.94;5070833;28;20036;-47
2024/01/28 00:39:35;;;;;;;35.00;14.27;;;;;;;7.31;64.33;103306.47;5072049;28;20082;-45
2024/01/28 00:42:02;;;;;;;34.25;14.95;;;;;;;6.98;64.88;103299.06;5072784;28;20028;-50
2024/01/28 00:44:28;;;;;;;31.73;14.32;;;;;;;7.05;65.29;103306.44;5073640;28;20131;-44
2024/01/28 00:46:55;;;;;;;31.65;14.32;;;;;;;7.12;65.19;103309.56;5071441;28;20549;-46
2024/01/28 00:49:23;;;;;;;34.38;14.48;;;;;;;7.01;65.27;103309.66;5073290;28;20101;-45
2024/01/28 00:51:48;;;;;;;33.45;13.85;;;;;;;6.92;65.25;103307.31;5073286;28;20036;-45
2024/01/28 00:54:15;;;;;;;32.83;14.85;;;;;;;7.08;64.98;103312.72;5073280;28;20454;-46
2024/01/28 00:56:40;;;;;;;32.70;14.48;;;;;;;7.17;64.44;103312.44;5072640;28;20040;-46
2024/01/28 00:59:06;;;;;;;35.08;14.90;;;;;;;7.13;64.64;103310.47;5077624;28;20049;-48
2024/01/28 01:01:31;;;;;;;31.15;13.98;;;;;;;7.20;63.80;103318.72;5077571;28;20039;-45
2024/01/28 01:03:58;;;;;;;33.10;14.48;;;;;;;7.14;63.53;103307.94;5075100;28;20043;-46
2024/01/28 01:06:23;;;;;;;34.10;13.73;;;;;;;7.10;63.40;103310.25;5071941;28;20517;-45
2024/01/28 01:08:48;;;;;;;31.85;13.48;;;;;;;7.06;63.18;103296.19;5073309;28;20044;-45
2024/01/28 01:11:14;;;;;;;33.28;14.13;;;;;;;6.93;64.64;103293.56;5071638;28;20032;-46
2024/01/28 01:13:39;;;;;;;39.30;14.93;;;;;;;6.83;65.16;103294.63;5073037;28;20040;-46
2024/01/28 01:16:05;;;;;;;31.88;13.75;;;;;;;6.97;64.41;103289.47;5072153;28;20046;-50
2024/01/28 01:18:30;;;;;;;35.25;15.30;;;;;;;6.41;66.46;103279.66;5072779;28;20453;-48
2024/01/28 01:20:56;;;;;;;36.83;15.25;;;;;;;6.56;66.61;103271.16;5071832;28;20040;-45
2024/01/28 01:23:21;;;;;;;37.53;14.40;;;;;;;6.45;66.89;103265.25;5072784;28;20078;-45
2024/01/28 01:25:46;;;;;;;35.13;14.80;;;;;;;6.61;66.16;103267.16;5072446;28;20040;-45
2024/01/28 01:28:12;;;;;;;37.05;14.60;;;;;;;6.62;65.93;103256.91;5072021;28;20041;-44
2024/01/28 01:30:39;;;;;;;31.92;13.90;;;;;;;6.34;67.22;103240.31;5071488;28;20101;-45
2024/01/28 01:33:04;;;;;;;34.67;14.45;;;;;;;6.30;66.98;103236.59;5071578;28;20044;-45
2024/01/28 01:35:29;;;;;;;31.70;13.50;;;;;;;6.12;67.67;103232.75;5072361;28;20025;-49
2024/01/28 01:37:55;;;;;;;29.85;13.80;;;;;;;6.39;66.52;103232.06;5071262;28;20043;-45
2024/01/28 01:40:21;;;;;;;30.77;13.63;;;;;;;6.28;66.70;103232.13;5072349;28;20150;-45
2024/01/28 01:42:46;;;;;;;31.75;13.40;;;;;;;6.41;65.47;103242.50;5072206;28;20040;-45
2024/01/28 01:45:12;;;;;;;32.05;12.45;;;;;;;6.32;66.14;103235.00;5071606;28;20047;-46
2024/01/28 01:47:39;;;;;;;30.75;13.00;;;;;;;6.15;66.92;103239.84;5071000;28;20058;-48
2024/01/28 01:50:08;;;;;;;26.77;12.68;;;;;;;6.37;66.10;103240.50;5072409;28;20452;-45
2024/01/28 01:52:33;;;;;;;26.42;12.35;;;;;;;6.27;66.18;103233.81;5077375;28;20036;-47
2024/01/28 01:55:00;;;;;;;29.35;12.30;;;;;;;6.08;66.47;103235.94;5074155;28;20028;-46
2024/01/28 01:57:25;;;;;;;30.73;12.48;;;;;;;6.00;66.79;103231.91;5071837;28;20033;-45
2024/01/28 01:59:51;;;;;;;32.45;12.27;;;;;;;6.09;66.71;103237.72;5072083;28;20039;-46
2024/01/28 02:02:17;;;;;;;27.73;12.32;;;;;;;6.05;66.81;103233.09;5071461;28;20029;-45
2024/01/28 02:04:43;;;;;;;26.63;12.30;;;;;;;6.27;65.75;103232.91;5072024;28;20036;-48
2024/01/28 02:07:09;;;;;;;27.65;12.85;;;;;;;6.41;65.00;103239.91;5070603;28;20495;-45
2024/01/28 02:09:35;;;;;;;25.75;11.73;;;;;;;6.20;65.42;103236.78;5071685;28;20140;-47
2024/01/28 02:12:01;;;;;;;29.13;12.20;;;;;;;6.37;65.35;103230.13;5070884;28;20040;-47
2024/01/28 02:14:29;;;;;;;30.13;12.48;;;;;;;6.36;65.35;103231.81;5071600;28;20036;-48
2024/01/28 02:16:59;;;;;;;25.10;11.45;;;;;;;6.42;65.46;103237.44;5070247;28;20482;-45
2024/01/28 02:19:26;;;;;;;27.73;11.60;;;;;;;6.42;65.07;103234.84;5071421;28;20036;-45
2024/01/28 02:21:51;;;;;;;27.95;12.23;;;;;;;6.38;65.18;103231.94;5071337;28;20048;-46
2024/01/28 02:24:17;;;;;;;28.65;11.60;;;;;;;6.47;64.65;103235.13;5071508;28;20032;-45
2024/01/28 02:26:42;;;;;;;27.75;11.18;;;;;;;6.46;64.54;103231.66;5071394;28;20036;-45
2024/01/28 02:29:07;;;;;;;23.50;11.15;;;;;;;6.46;64.87;103229.06;5070553;28;20033;-48
2024/01/28 02:31:33;;;;;;;28.30;11.85;;;;;;;6.44;64.44;103222.00;5071241;28;20075;-45
2024/01/28 02:33:58;;;;;;;28.75;11.90;;;;;;;6.49;64.57;103228.38;5070742;28;20077;-47
2024/01/28 02:36:32;;;;;;;27.00;11.30;;;;;;;6.46;64.32;103229.06;5071005;28;20031;-47
2024/01/28 02:38:58;;;;;;;28.92;11.38;;;;;;;6.43;64.32;103228.88;5070997;28;20031;-49
2024/01/28 02:41:24;;;;;;;27.98;12.35;;;;;;;6.14;65.59;103219.91;5071364;28;20043;-46
2024/01/28 02:43:49;;;;;;;33.03;11.70;;;;;;;6.10;66.12;103208.41;5071957;28;20037;-44
2024/01/28 02:46:15;;;;;;;30.27;11.43;;;;;;;6.15;66.14;103211.34;5070814;28;20086;-47
2024/01/28 02:48:41;;;;;;;29.90;12.10;;;;;;;6.19;66.03;103208.16;5070561;28;20032;-47
2024/01/28 02:51:06;;;;;;;30.27;11.77;;;;;;;6.17;66.08;103207.16;5070007;28;20134;-45
2024/01/28 02:53:32;;;;;;;26.58;12.07;;;;;;;5.96;66.83;103202.31;5070857;28;20525;-45
2024/01/28 02:55:59;;;;;;;24.40;11.63;;;;;;;5.97;66.64;103211.00;5070391;28;20036;-44
2024/01/28 02:58:25;;;;;;;26.35;12.00;;;;;;;6.03;66.47;103196.78;5071010;28;20032;-49
2024/01/28 03:00:51;;;;;;;26.42;12.25;;;;;;;5.77;67.09;103194.03;5070748;28;20069;-46
2024/01/28 03:03:16;;;;;;;27.33;12.43;;;;;;;6.19;65.60;103185.75;5071526;28;20029;-45
2024/01/28 03:05:41;;;;;;;29.98;11.90;;;;;;;5.66;67.32;103187.22;5071847;28;20119;-46
2024/01/28 03:08:07;;;;;;;29.67;11.85;;;;;;;5.82;66.99;103177.13;5078008;28;20090;-46
2024/01/28 03:10:33;;;;;;;25.80;11.45;;;;;;;5.72;67.46;103180.78;5079975;28;20068;-45
2024/01/28 03:12:58;;;;;;;27.83;10.90;;;;;;;5.54;67.71;103176.00;5077115;28;20047;-44
2024/01/28 03:15:24;;;;;;;27.40;11.40;;;;;;;5.53;67.38;103167.34;5071687;28;20024;-46
2024/01/28 03:17:49;;;;;;;24.55;11.20;;;;;;;5.37;68.12;103172.22;5070154;28;20494;-50
2024/01/28 03:20:17;;;;;;;22.13;10.85;;;;;;;5.49;67.36;103170.50;5069895;28;20086;-44
2024/01/28 03:22:42;;;;;;;28.15;11.45;;;;;;;5.52;66.92;103169.81;5070985;28;20028;-45
2024/01/28 03:25:08;;;;;;;28.20;10.93;;;;;;;5.67;66.21;103174.34;5068708;28;20040;-47
2024/01/28 03:27:34;;;;;;;24.80;11.02;;;;;;;5.47;66.99;103166.00;5069672;28;20031;-47
2024/01/28 03:29:59;;;;;;;26.63;10.85;;;;;;;5.58;66.48;103157.31;5069646;28;20060;-46
2024/01/28 03:32:25;;;;;;;24.55;11.13;;;;;;;5.56;66.39;103151.13;5070100;28;20035;-44
2024/01/28 03:34:50;;;;;;;24.50;11.25;;;;;;;5.71;66.06;103152.19;5070595;28;20405;-46
2024/01/28 03:37:15;;;;;;;22.67;10.55;;;;;;;5.54;66.14;103160.50;5069313;28;20572;-47
2024/01/28 03:39:41;;;;;;;28.05;11.18;;;;;;;5.47;66.38;103166.00;5070170;28;20546;-49
2024/01/28 03:42:07;;;;;;;23.85;10.82;;;;;;;5.35;66.79;103160.88;5069982;28;20037;-44
2024/01/28 03:44:32;;;;;;;27.95;11.30;;;;;;;5.45;66.57;103165.91;5071819;28;20043;-45
2024/01/28 03:46:57;;;;;;;27.45;11.75;;;;;;;5.69;66.28;103162.44;5071056;28;20040;-46
2024/01/28 03:49:23;;;;;;;24.85;11.07;;;;;;;5.37;66.89;103158.41;5071027;28;20032;-48
2024/01/28 03:51:48;;;;;;;25.38;10.95;;;;;;;5.66;65.68;103146.72;5071420;28;20075;-45
2024/01/28 03:54:14;;;;;;;28.60;11.70;;;;;;;5.52;66.41;103150.03;5072125;28;20043;-47
2024/01/28 03:56:40;;;;;;;26.48;11.38;;;;;;;5.08;67.99;103145.97;5071237;28;20597;-50
2024/01/28 03:59:06;;;;;;;24.25;11.52;;;;;;;5.28;67.54;103150.88;5070248;28;20473;-48
2024/01/28 04:01:34;;;;;;;27.05;11.70;;;;;;;5.21;67.54;103152.13;5070346;28;20033;-48
2024/01/28 04:04:00;;;;;;;29.67;12.05;;;;;;;5.35;66.61;103155.72;5072235;28;20032;-46
2024/01/28 04:06:26;;;;;;;26.95;11.32;;;;;;;5.48;66.47;103155.78;5071604;28;20128;-45
2024/01/28 04:08:54;;;;;;;26.67;11.52;;;;;;;5.23;67.08;103144.50;5072590;28;20388;-45
2024/01/28 04:11:25;;;;;;;25.80;11.68;;;;;;;5.40;66.70;103146.56;5072997;28;20150;-48
2024/01/28 04:13:55;;;;;;;28.98;11.85;;;;;;;5.21;67.03;103141.78;5077803;28;20502;-45
2024/01/28 04:16:21;;;;;;;23.50;11.80;;;;;;;5.47;66.52;103138.47;5075177;28;20090;-47
2024/01/28 04:18:47;;;;;;;23.55;10.90;;;;;;;5.30;66.57;103128.63;5074061;28;20044;-46
2024/01/28 04:21:12;;;;;;;32.88;11.23;;;;;;;5.35;66.54;103128.94;5071990;28;20093;-45
2024/01/28 04:23:39;;;;;;;24.38;12.15;;;;;;;5.48;66.05;103124.75;5073821;28;20043;-47
2024/01/28 04:26:05;;;;;;;24.70;11.65;;;;;;;5.37;66.82;103123.06;5072888;28;20035;-49
2024/01/28 04:28:30;;;;;;;23.73;11.23;;;;;;;5.49;65.56;103118.75;5073379;28;20025;-46
2024/01/28 04:30:56;;;;;;;22.60;11.05;;;;;;;5.47;66.43;103124.63;5071800;28;20040;-44
2024/01/28 04:33:21;;;;;;;27.15;11.50;;;;;;;5.41;66.60;103116.44;5073700;28;20398;-47
2024/01/28 04:35:46;;;;;;;24.15;10.80;;;;;;;5.49;65.82;103118.75;5073310;28;20418;-49
2024/01/28 04:38:12;;;;;;;27.52;10.73;;;;;;;5.41;65.33;103121.59;5072728;28;20623;-45
2024/01/28 04:40:37;;;;;;;28.35;11.25;;;;;;;5.23;65.97;103114.38;5073359;28;20494;-47
2024/01/28 04:43:02;;;;;;;23.55;11.02;;;;;;;5.31;66.26;103110.59;5072825;28;20453;-45
2024/01/28 04:45:28;;;;;;;25.15;11.07;;;;;;;5.44;65.76;103099.44;5073513;28;20039;-44
2024/01/28 04:47:54;;;;;;;23.20;10.43;;;;;;;5.44;65.10;103112.34;5072028;28;20498;-52
2024/01/28 04:50:19;;;;;;;24.75;10.82;;;;;;;5.10;65.99;103106.53;5073014;28;20037;-48
2024/01/28 04:52:44;;;;;;;22.23;10.23;;;;;;;5.34;65.32;103104.75;5072845;28;20770;-45
2024/01/28 04:55:10;;;;;;;26.77;10.55;;;;;;;5.36;65.74;103098.03;5072461;28;20403;-45
2024/01/28 04:57:35;;;;;;;24.10;10.20;;;;;;;5.60;64.06;103099.72;5072707;28;20488;-43
2024/01/28 05:00:01;;;;;;;24.08;9.90;;;;;;;5.58;64.28;103087.44;5073060;28;20062;-44
2024/01/28 05:02:26;;;;;;;27.63;10.35;;;;;;;5.48;64.66;103090.22;5073161;28;20032;-45
2024/01/28 05:04:51;;;;;;;26.63;10.55;;;;;;;5.58;63.98;103085.75;5073053;28;20086;-45
2024/01/28 05:07:17;;;;;;;23.13;10.32;;;;;;;5.36;65.14;103087.66;5072177;28;20029;-44
2024/01/28 05:09:42;;;;;;;22.00;10.35;;;;;;;5.30;64.69;103077.81;5073325;28;20024;-45
2024/01/28 05:12:08;;;;;;;22.23;10.38;;;;;;;5.37;64.23;103075.63;5072227;28;20075;-47
2024/01/28 05:14:34;;;;;;;21.52;9.90;;;;;;;5.36;64.78;103073.84;5071686;28;20040;-45
2024/01/28 05:17:00;;;;;;;24.63;10.27;;;;;;;5.38;64.92;103065.38;5071645;28;20032;-44
2024/01/28 05:19:26;;;;;;;21.08;10.02;;;;;;;5.25;64.85;103060.13;5071691;28;20085;-47
2024/01/28 05:21:51;;;;;;;20.40;9.65;;;;;;;5.27;65.23;103064.63;5071583;28;20043;-45
2024/01/28 05:24:16;;;;;;;19.67;9.13;;;;;;;5.46;64.56;103058.16;5071347;28;20372;-46
2024/01/28 05:26:42;;;;;;;19.98;9.52;;;;;;;5.31;64.93;103053.69;5071889;28;20498;-46
2024/01/28 05:29:08;;;;;;;22.83;9.32;;;;;;;5.48;64.66;103054.88;5072023;28;20044;-46
2024/01/28 05:31:33;;;;;;;23.40;9.35;;;;;;;5.09;65.27;103044.34;5070159;28;20044;-44
2024/01/28 05:34:02;;;;;;;25.05;9.90;;;;;;;5.21;65.09;103047.78;5072335;28;20048;-43
2024/01/28 05:36:27;;;;;;;20.10;9.43;;;;;;;5.20;65.38;103044.31;5072191;28;20533;-48
2024/01/28 05:38:55;;;;;;;24.38;9.27;;;;;;;5.07;65.25;103045.94;5072522;28;20029;-47
2024/01/28 05:41:21;;;;;;;23.50;9.55;;;;;;;5.24;64.47;103040.28;5071760;28;20486;-47
2024/01/28 05:43:47;;;;;;;20.85;9.02;;;;;;;5.15;64.64;103043.09;5072361;28;20032;-46
2024/01/28 05:46:12;;;;;;;21.58;9.18;;;;;;;5.20;64.90;103035.66;5071663;28;20406;-45
2024/01/28 05:48:38;;;;;;;21.35;9.57;;;;;;;5.27;64.21;103041.38;5072407;28;20032;-48
2024/01/28 05:51:03;;;;;;;23.50;9.68;;;;;;;5.33;64.33;103048.66;5071665;28;20036;-45
2024/01/28 05:53:28;;;;;;;25.92;9.88;;;;;;;5.09;64.91;103044.34;5072422;28;20032;-45
2024/01/28 05:55:54;;;;;;;21.90;9.70;;;;;;;5.07;64.97;103045.94;5072419;28;20120;-52
2024/01/28 05:58:23;;;;;;;25.55;9.48;;;;;;;5.29;64.17;103044.06;5071896;28;20083;-47
2024/01/28 06:00:48;;;;;;;20.48;9.75;;;;;;;4.71;65.55;103039.06;5070643;28;20407;-46
2024/01/28 06:03:14;;;;;;;22.65;9.45;;;;;;;4.90;65.27;103043.06;5071953;28;20044;-45
2024/01/28 06:05:40;;;;;;;23.75;10.02;;;;;;;5.06;64.83;103039.84;5072245;28;20038;-45
2024/01/28 06:08:08;;;;;;;21.95;10.02;;;;;;;5.24;63.69;103045.44;5071813;28;20047;-45
2024/01/28 06:10:34;;;;;;;25.25;10.43;;;;;;;4.72;65.38;103038.28;5053856;28;20563;-45
2024/01/28 06:13:00;;;;;;;27.23;10.48;;;;;;;4.84;65.64;103039.16;5071255;28;20124;-46
2024/01/28 06:15:25;;;;;;;24.48;10.75;;;;;;;5.05;65.38;103032.91;5071668;28;20033;-45
2024/01/28 06:17:51;;;;;;;25.90;10.02;;;;;;;5.44;63.32;103039.94;5070779;28;20452;-46
2024/01/28 06:20:17;;;;;;;23.13;10.82;;;;;;;4.79;65.07;103038.84;5071332;28;20405;-44
2024/01/28 06:22:42;;;;;;;22.08;10.60;;;;;;;5.18;64.07;103032.09;5071641;28;20048;-44
2024/01/28 06:25:08;;;;;;;21.38;10.60;;;;;;;5.15;64.15;103029.28;5071218;28;20037;-44
2024/01/28 06:27:33;;;;;;;24.38;10.95;;;;;;;5.26;63.53;103029.22;5071046;28;20116;-46
2024/01/28 06:29:59;;;;;;;22.25;10.68;;;;;;;5.25;63.47;103027.41;5070827;28;20036;-48
2024/01/28 06:32:25;;;;;;;25.60;10.70;;;;;;;5.16;64.31;103031.06;5070616;28;20036;-50
2024/01/28 06:34:50;;;;;;;25.02;12.10;;;;;;;5.02;64.80;103022.34;5070900;28;20064;-43
2024/01/28 06:37:16;;;;;;;23.02;11.27;;;;;;;4.92;65.33;103019.03;5068849;28;20028;-46
2024/01/28 06:39:42;;;;;;;24.35;11.32;;;;;;;5.18;63.47;103017.47;5071176;28;20032;-44
2024/01/28 06:42:08;;;;;;;26.85;10.93;;;;;;;5.36;63.57;103020.41;5070898;28;20424;-45
2024/01/28 06:44:33;;;;;;;22.17;10.27;;;;;;;5.17;63.50;103015.69;5069825;28;20029;-46
2024/01/28 06:46:59;;;;;;;24.92;10.38;;;;;;;5.07;64.24;103013.22;5069578;28;20028;-46
2024/01/28 06:49:25;;;;;;;23.90;10.60;;;;;;;4.96;64.69;103014.16;5071692;28;20036;-45
2024/01/28 06:51:51;;;;;;;23.27;10.50;;;;;;;4.87;64.99;103009.28;5075635;28;20043;-45
2024/01/28 06:54:18;;;;;;;23.48;10.40;;;;;;;4.79;64.72;103010.41;5070427;28;20025;-47
2024/01/28 06:56:44;;;;;;;25.30;10.35;;;;;;;4.74;65.17;103010.88;5070412;28;20036;-44
2024/01/28 06:59:09;;;;;;;26.35;10.48;;;;;;;5.17;64.36;103007.00;5069468;28;20123;-46
2024/01/28 07:01:35;;;;;;;21.30;10.13;;;;;;;5.16;63.93;103012.97;5071486;28;20029;-45
2024/01/28 07:04:01;;;;;;;26.60;9.77;;;;;;;5.16;63.43;103008.69;5072104;28;20032;-50
2024/01/28 07:06:26;;;;;;;27.60;10.63;;;;;;;5.47;62.11;103016.88;5075053;28;20053;-44
2024/01/28 07:08:51;;;;;;;21.35;9.75;;;;;;;5.38;63.14;103017.91;5077843;28;20067;-46
2024/01/28 07:11:19;;;;;;;23.88;10.68;;;;;;;5.41;62.24;103008.69;5077366;28;20071;-45
2024/01/28 07:13:44;;;;;;;23.20;10.85;;;;;;;5.35;62.82;103012.56;5071438;28;20123;-47
2024/01/28 07:16:10;;;;;;;29.30;10.82;;;;;;;5.43;62.14;103006.22;5069810;28;20116;-44
2024/01/28 07:18:36;;;;;;;21.95;10.20;;;;;;;5.30;61.78;103000.22;5070123;28;20375;-45
2024/01/28 07:21:02;;;;;;;21.20;9.93;;;;;;;5.24;62.31;103007.56;5069501;28;20036;-45
2024/01/28 07:23:28;;;;;;;23.83;10.48;;;;;;;5.50;61.44;103006.72;5070827;28;20402;-46
2024/01/28 07:25:53;;;;;;;23.60;10.75;;;;;;;5.42;61.94;103004.41;5070100;28;20036;-49
2024/01/28 07:28:19;;;;;;;22.10;10.70;;;;;;;5.36;61.29;103007.50;5069869;28;20055;-46
2024/01/28 07:30:44;;;;;;;22.02;10.70;;;;;;;5.48;61.47;103000.56;5070023;28;20057;-47
2024/01/28 07:33:10;;;;;;;20.95;9.70;;;;;;;5.53;61.12;102996.59;5069797;28;20067;-46
2024/01/28 07:35:35;;;;;;;20.08;9.35;;;;;;;5.43;60.94;102988.13;5071143;28;20032;-45
2024/01/28 07:38:00;;;;;;;20.70;9.10;;;;;;;5.62;60.22;102983.34;5069707;28;20040;-47
2024/01/28 07:40:26;;;;;;;21.35;8.90;;;;;;;5.85;59.34;102985.81;5070021;28;20036;-46
2024/01/28 07:42:51;;;;;;;19.75;9.13;;;;;;;5.66;59.43;102978.50;5070473;28;20115;-44
2024/01/28 07:45:17;;;;;;;19.25;8.07;;;;;;;5.46;59.63;102981.44;5068579;28;20093;-46
2024/01/28 07:47:42;;;;;;;19.88;8.68;;;;;;;5.54;59.64;102972.50;5069268;28;20036;-45
2024/01/28 07:50:08;;;;;;;21.83;8.43;;;;;;;6.01;58.39;102969.59;5069331;28;20522;-46
2024/01/28 07:52:33;;;;;;;21.40;8.43;;;;;;;5.93;58.25;102966.50;5069465;28;20036;-45
2024/01/28 07:54:59;;;;;;;17.75;7.95;;;;;;;5.94;57.97;102967.41;5069522;28;20032;-47
2024/01/28 07:57:24;;;;;;;18.77;7.90;;;;;;;6.26;56.76;102962.63;5069228;28;20121;-46
2024/01/28 07:59:49;;;;;;;17.50;7.82;;;;;;;6.18;57.02;102965.50;5069854;28;20043;-45
2024/01/28 08:02:15;;;;;;;20.83;7.85;;;;;;;6.10;56.83;102958.13;5069114;28;20407;-45
2024/01/28 08:04:40;;;;;;;15.55;7.72;;;;;;;6.40;56.21;102958.31;5069534;28;20036;-48
2024/01/28 08:07:06;;;;;;;15.52;7.78;;;;;;;6.27;56.15;102955.75;5068590;28;20037;-48
2024/01/28 08:09:33;;;;;;;19.85;8.70;;;;;;;6.18;56.50;102965.50;5069484;28;20044;-51
2024/01/28 08:11:58;;;;;;;19.42;8.65;;;;;;;6.43;55.65;102961.09;5068998;28;20158;-47
2024/01/28 08:14:27;;;;;;;22.40;9.18;;;;;;;6.31;56.10;102961.22;5069983;28;20021;-46
2024/01/28 08:16:54;;;;;;;22.45;8.98;;;;;;;6.11;56.86;102959.03;5070148;28;20048;-47
2024/01/28 08:19:19;;;;;;;20.55;9.77;;;;;;;6.31;56.61;102953.44;5070433;28;20110;-45
2024/01/28 08:21:44;;;;;;;17.30;9.02;;;;;;;6.55;55.72;102955.78;5070732;28;20068;-46
2024/01/28 08:24:10;;;;;;;20.48;9.18;;;;;;;6.76;55.42;102954.53;5069294;28;20041;-44
2024/01/28 08:26:36;;;;;;;18.95;9.07;;;;;;;6.52;55.86;102951.31;5069015;28;20451;-45
2024/01/28 08:29:02;;;;;;;22.83;9.70;;;;;;;6.41;56.25;102945.44;5067669;28;20032;-46
2024/01/28 08:31:27;;;;;;;20.05;9.57;;;;;;;6.31;56.55;102953.44;5069597;28;20063;-47
2024/01/28 08:33:53;;;;;;;19.55;9.35;;;;;;;6.37;56.16;102951.25;5069424;28;20115;-46
2024/01/28 08:36:18;;;;;;;22.30;10.48;;;;;;;6.40;56.23;102946.22;5068745;28;20032;-47
2024/01/28 08:38:43;;;;;;;19.30;9.27;;;;;;;6.19;56.56;102947.47;5068114;28;20418;-45
2024/01/28 08:41:09;;;;;;;18.92;9.52;;;;;;;6.30;56.48;102943.88;5068826;28;20037;-48
2024/01/28 08:43:35;;;;;;;20.60;9.77;;;;;;;6.43;55.83;102942.94;5070222;28;20035;-45
2024/01/28 08:46:03;;;;;;;25.55;9.63;;;;;;;6.70;54.96;102943.78;5067922;28;20177;-45
2024/01/28 08:48:28;;;;;;;20.65;9.27;;;;;;;6.75;54.90;102937.19;5069562;28;20098;-45
2024/01/28 08:50:54;;;;;;;19.55;9.50;;;;;;;6.57;55.44;102933.47;5069063;28;20041;-44
2024/01/28 08:53:19;;;;;;;24.75;10.27;;;;;;;6.38;55.87;102932.31;5069263;28;20033;-45
2024/01/28 08:55:44;;;;;;;22.15;10.07;;;;;;;6.70;55.07;102939.50;5070222;28;20491;-45
2024/01/28 08:58:10;;;;;;;22.27;10.18;;;;;;;6.57;55.53;102939.53;5071939;28;20040;-46
2024/01/28 09:00:35;;;;;;;21.25;10.18;;;;;;;6.71;54.94;102933.50;5071756;28;20449;-45
2024/01/28 09:03:00;;;;;;;19.80;9.50;;;;;;;6.62;55.19;102934.63;5073545;28;20028;-46
2024/01/28 09:05:26;;;;;;;20.80;9.48;;;;;;;6.51;55.72;102933.97;5073657;28;20032;-49
2024/01/28 09:07:52;;;;;;;19.58;9.60;;;;;;;6.87;54.33;102936.25;5070954;28;20039;-46
2024/01/28 09:10:18;;;;;;;19.58;9.63;;;;;;;6.85;54.05;102930.06;5072611;28;20029;-48
2024/01/28 09:12:44;;;;;;;22.50;9.70;;;;;;;6.61;55.06;102927.66;5072479;28;20032;-52
2024/01/28 09:15:09;;;;;;;17.73;9.10;;;;;;;6.93;54.41;102918.47;5072312;28;20033;-45
2024/01/28 09:17:35;;;;;;;20.85;10.10;;;;;;;7.06;54.10;102929.59;5072112;28;20025;-45
2024/01/28 09:20:00;;;;;;;22.17;9.95;;;;;;;6.89;54.41;102926.84;5072340;28;20039;-48
2024/01/28 09:22:25;;;;;;;23.63;9.75;;;;;;;6.98;54.18;102918.75;5073471;28;20121;-46
2024/01/28 09:24:51;;;;;;;23.75;9.90;;;;;;;7.31;53.60;102927.66;5073064;28;20052;-47
2024/01/28 09:27:17;;;;;;;19.27;9.90;;;;;;;7.39;53.19;102918.59;5072074;28;20107;-46
2024/01/28 09:29:42;;;;;;;21.27;9.70;;;;;;;7.45;53.05;102916.34;5072353;28;20498;-47
2024/01/28 09:32:08;;;;;;;18.73;9.43;;;;;;;7.41;53.17;102918.69;5071523;28;20040;-45
2024/01/28 09:34:33;;;;;;;18.95;9.45;;;;;;;7.80;52.12;102923.63;5072576;28;20039;-46
2024/01/28 09:36:59;;;;;;;20.05;9.40;;;;;;;7.82;52.03;102921.97;5071456;28;20036;-47
2024/01/28 09:39:25;;;;;;;17.90;9.05;;;;;;;7.75;52.31;102914.63;5072821;28;20044;-46
2024/01/28 09:42:05;;;;;;;19.77;9.50;;;;;;;7.79;52.23;102916.63;5072407;28;20060;-44
2024/01/28 09:44:31;;;;;;;20.60;9.38;;;;;;;7.86;52.14;102912.69;5071808;28;20029;-47
2024/01/28 09:46:58;;;;;;;18.90;9.10;;;;;;;7.14;53.88;102916.25;5071014;28;20040;-45
2024/01/28 09:49:24;;;;;;;20.52;9.27;;;;;;;7.25;53.59;102914.31;5072118;28;20067;-45
2024/01/28 09:51:49;;;;;;;20.92;9.15;;;;;;;7.42;53.37;102913.59;5072006;28;20040;-47
2024/01/28 09:54:15;;;;;;;19.23;9.13;;;;;;;7.40;53.77;102912.59;5070668;28;20040;-45
2024/01/28 09:56:41;;;;;;;22.00;9.57;;;;;;;7.54;53.33;102910.81;5072013;28;20036;-47
2024/01/28 09:59:08;;;;;;;19.83;8.70;;;;;;;7.88;52.46;102905.84;5072028;28;20517;-46
2024/01/28 10:01:34;;;;;;;17.27;8.88;;;;;;;7.59;53.36;102902.50;5072644;28;20040;-48
2024/01/28 10:04:00;;;;;;;18.38;8.80;;;;;;;7.99;52.48;102894.38;5072169;28;20042;-44
2024/01/28 10:06:26;;;;;;;16.92;8.57;;;;;;;7.54;53.17;102896.16;5072590;28;20028;-44
2024/01/28 10:08:51;;;;;;;17.88;8.77;;;;;;;7.88;52.48;102895.47;5071744;28;20452;-47
2024/01/28 10:11:16;;;;;;;17.83;9.30;;;;;;;8.12;52.19;102891.63;5071953;28;20563;-47
2024/01/28 10:13:42;;;;;;;19.98;8.90;;;;;;;8.12;52.46;102894.22;5072839;28;20025;-45
2024/01/28 10:16:07;;;;;;;19.05;8.55;;;;;;;7.82;53.09;102889.91;5071812;28;20407;-44
2024/01/28 10:18:32;;;;;;;19.05;8.27;;;;;;;8.12;52.08;102892.53;5071522;28;20120;-48
2024/01/28 10:20:58;;;;;;;16.75;8.63;;;;;;;8.25;51.73;102895.78;5071571;28;20060;-45
2024/01/28 10:23:23;;;;;;;17.40;8.43;;;;;;;8.08;52.09;102890.56;5073021;28;20120;-46
2024/01/28 10:25:49;;;;;;;16.08;8.32;;;;;;;8.36;52.16;102890.41;5072844;28;20036;-44
2024/01/28 10:28:17;;;;;;;16.77;7.93;;;;;;;8.29;51.92;102885.69;5071442;28;20086;-47
2024/01/28 10:30:42;;;;;;;16.67;8.27;;;;;;;8.55;51.77;102882.78;5070763;28;20041;-45
2024/01/28 10:33:08;;;;;;;15.85;7.78;;;;;;;8.86;50.41;102881.81;5070818;28;20533;-48
2024/01/28 10:35:33;;;;;;;16.55;7.80;;;;;;;8.47;51.30;102881.50;5071263;28;20116;-47
2024/01/28 10:38:00;;;;;;;18.15;7.43;;;;;;;8.23;51.98;102887.03;5070550;28;20070;-45
2024/01/28 10:40:31;;;;;;;15.43;7.60;;;;;;;9.02;50.83;102888.72;5071517;28;20036;-45
2024/01/28 10:43:01;;;;;;;18.85;7.68;;;;;;;9.23;49.71;102877.69;5071036;28;20044;-44
2024/01/28 10:45:27;;;;;;;15.75;7.22;;;;;;;9.20;49.82;102881.84;5071746;28;20077;-45
2024/01/28 10:48:05;;;;;;;14.13;7.45;;;;;;;9.12;50.00;102878.84;5071722;28;20041;-46
2024/01/28 10:50:32;;;;;;;14.98;7.53;;;;;;;9.21;50.13;102868.03;5071601;28;20050;-47
2024/01/28 10:52:59;;;;;;;18.85;7.97;;;;;;;8.87;50.80;102868.00;5071345;28;20036;-47
2024/01/28 10:55:25;;;;;;;17.85;7.65;;;;;;;9.13;50.21;102862.44;5071426;28;20717;-44
2024/01/28 10:57:53;;;;;;;15.98;7.47;;;;;;;9.44;49.82;102859.66;5071464;28;20127;-45
2024/01/28 11:00:20;;;;;;;14.88;7.80;;;;;;;9.49;49.47;102857.28;5073467;28;20491;-45
2024/01/28 11:02:47;;;;;;;23.70;8.00;;;;;;;9.09;50.79;102850.06;5075530;28;20043;-45
2024/01/28 11:05:13;;;;;;;15.02;8.20;;;;;;;9.28;50.13;102842.38;5078971;28;20037;-46
2024/01/28 11:07:38;;;;;;;17.30;8.23;;;;;;;9.40;49.75;102846.38;5077025;28;20060;-45
2024/01/28 11:10:08;;;;;;;15.48;7.80;;;;;;;9.43;49.58;102839.63;5075740;28;20039;-45
2024/01/28 11:12:35;;;;;;;15.52;7.57;;;;;;;9.36;49.70;102832.34;5078155;28;20040;-45